sensor_id;sensor_type;location;lat;lon;timestamp;P1;durP1;ratioP1;P2;durP2;ratioP2
2476;SDS011;1249;51.270;6.756;2022-10-15T00:01:05;11.23;;;10.23;;
2476;SDS011;1249;51.270;6.756;2022-10-15T00:03:34;12.07;;;10.87;;
2476;SDS011;1249;51.270;6.756;2022-10-15T00:06:02;20.37;;;19.17;;
2476;SDS011;1249;51.270;6.756;2022-10-15T00:08:30;16.03;;;14.73;;
2476;SDS011;1249;51.270;6.756;2022-10-15T00:11:00;11.60;;;10.77;;
2476;SDS011;1249;51.270;6.756;2022-10-15T00:13:29;12.27;;;11.50;;
2476;SDS011;1249;51.270;6.756;2022-10-15T00:15:57;19.67;;;17.90;;
2476;SDS011;1249;51.270;6.756;2022-10-15T00:18:23;8.70;;;7.00;;
2476;SDS011;1249;51.270;6.756;2022-10-15T00:20:50;8.50;;;7.80;;
2476;SDS011;1249;51.270;6.756;2022-10-15T00:23:17;7.57;;;6.97;;
2476;SDS011;1249;51.270;6.756;2022-10-15T00:25:44;17.20;;;15.60;;
2476;SDS011;1249;51.270;6.756;2022-10-15T00:28:10;13.03;;;11.87;;
2476;SDS011;1249;51.270;6.756;2022-10-15T00:30:38;31.13;;;29.30;;
2476;SDS011;1249;51.270;6.756;2022-10-15T00:33:05;19.00;;;17.23;;
2476;SDS011;1249;51.270;6.756;2022-10-15T00:35:32;9.50;;;8.53;;
2476;SDS011;1249;51.270;6.756;2022-10-15T00:37:58;17.40;;;16.00;;
2476;SDS011;1249;51.270;6.756;2022-10-15T00:40:25;15.33;;;13.83;;
2476;SDS011;1249;51.270;6.756;2022-10-15T00:42:52;14.77;;;13.77;;
2476;SDS011;1249;51.270;6.756;2022-10-15T00:45:19;19.40;;;18.07;;
2476;SDS011;1249;51.270;6.756;2022-10-15T00:47:47;12.40;;;9.40;;
2476;SDS011;1249;51.270;6.756;2022-10-15T00:50:15;14.20;;;13.10;;
2476;SDS011;1249;51.270;6.756;2022-10-15T00:52:46;41.40;;;39.03;;
2476;SDS011;1249;51.270;6.756;2022-10-15T00:55:23;74.57;;;70.37;;
2476;SDS011;1249;51.270;6.756;2022-10-15T00:57:53;64.63;;;60.73;;
2476;SDS011;1249;51.270;6.756;2022-10-15T01:00:21;61.13;;;57.23;;
2476;SDS011;1249;51.270;6.756;2022-10-15T01:02:49;86.37;;;81.57;;
2476;SDS011;1249;51.270;6.756;2022-10-15T01:05:16;11.80;;;10.90;;
2476;SDS011;1249;51.270;6.756;2022-10-15T01:07:43;20.90;;;19.50;;
2476;SDS011;1249;51.270;6.756;2022-10-15T01:10:10;10.23;;;9.67;;
2476;SDS011;1249;51.270;6.756;2022-10-15T01:12:42;15.33;;;14.50;;
2476;SDS011;1249;51.270;6.756;2022-10-15T01:15:17;10.17;;;9.47;;
2476;SDS011;1249;51.270;6.756;2022-10-15T01:17:49;33.17;;;31.33;;
2476;SDS011;1249;51.270;6.756;2022-10-15T01:20:26;77.60;;;73.70;;
2476;SDS011;1249;51.270;6.756;2022-10-15T01:26:19;15.53;;;14.60;;
2476;SDS011;1249;51.270;6.756;2022-10-15T01:29:12;104.13;;;97.87;;
2476;SDS011;1249;51.270;6.756;2022-10-15T01:31:53;13.07;;;11.17;;
2476;SDS011;1249;51.270;6.756;2022-10-15T01:34:28;97.47;;;92.20;;
2476;SDS011;1249;51.270;6.756;2022-10-15T01:37:06;59.07;;;55.20;;
2476;SDS011;1249;51.270;6.756;2022-10-15T01:39:36;12.27;;;11.33;;
2476;SDS011;1249;51.270;6.756;2022-10-15T01:42:08;69.70;;;65.73;;
2476;SDS011;1249;51.270;6.756;2022-10-15T01:44:41;54.60;;;51.00;;
2476;SDS011;1249;51.270;6.756;2022-10-15T01:47:15;42.97;;;40.43;;
2476;SDS011;1249;51.270;6.756;2022-10-15T01:49:46;40.93;;;38.43;;
2476;SDS011;1249;51.270;6.756;2022-10-15T01:52:17;9.63;;;8.80;;
2476;SDS011;1249;51.270;6.756;2022-10-15T01:54:46;61.03;;;57.47;;
2476;SDS011;1249;51.270;6.756;2022-10-15T01:57:15;33.97;;;32.03;;
2476;SDS011;1249;51.270;6.756;2022-10-15T01:59:44;46.60;;;44.33;;
2476;SDS011;1249;51.270;6.756;2022-10-15T02:02:11;20.30;;;18.97;;
2476;SDS011;1249;51.270;6.756;2022-10-15T02:04:40;35.00;;;32.97;;
2476;SDS011;1249;51.270;6.756;2022-10-15T02:07:07;12.37;;;11.10;;
2476;SDS011;1249;51.270;6.756;2022-10-15T02:09:40;67.73;;;64.70;;
2476;SDS011;1249;51.270;6.756;2022-10-15T02:12:15;64.80;;;61.40;;
2476;SDS011;1249;51.270;6.756;2022-10-15T02:14:57;80.23;;;75.53;;
2476;SDS011;1249;51.270;6.756;2022-10-15T02:17:33;109.47;;;103.80;;
2476;SDS011;1249;51.270;6.756;2022-10-15T02:20:05;31.40;;;29.53;;
2476;SDS011;1249;51.270;6.756;2022-10-15T02:22:38;76.83;;;72.63;;
2476;SDS011;1249;51.270;6.756;2022-10-15T02:25:12;54.10;;;50.70;;
2476;SDS011;1249;51.270;6.756;2022-10-15T02:27:41;79.27;;;74.93;;
2476;SDS011;1249;51.270;6.756;2022-10-15T02:30:10;24.30;;;22.93;;
2476;SDS011;1249;51.270;6.756;2022-10-15T02:32:39;12.63;;;11.57;;
2476;SDS011;1249;51.270;6.756;2022-10-15T02:35:08;8.63;;;7.60;;
2476;SDS011;1249;51.270;6.756;2022-10-15T02:37:37;11.93;;;11.00;;
2476;SDS011;1249;51.270;6.756;2022-10-15T02:40:08;11.40;;;7.20;;
2476;SDS011;1249;51.270;6.756;2022-10-15T02:42:36;10.20;;;9.20;;
2476;SDS011;1249;51.270;6.756;2022-10-15T02:45:02;7.07;;;6.40;;
2476;SDS011;1249;51.270;6.756;2022-10-15T02:47:30;47.97;;;44.70;;
2476;SDS011;1249;51.270;6.756;2022-10-15T02:49:58;83.10;;;78.40;;
2476;SDS011;1249;51.270;6.756;2022-10-15T02:52:24;38.10;;;35.60;;
2476;SDS011;1249;51.270;6.756;2022-10-15T02:54:51;23.63;;;21.77;;
2476;SDS011;1249;51.270;6.756;2022-10-15T02:57:18;10.90;;;9.83;;
2476;SDS011;1249;51.270;6.756;2022-10-15T02:59:45;40.93;;;38.17;;
2476;SDS011;1249;51.270;6.756;2022-10-15T03:02:11;26.83;;;24.87;;
2476;SDS011;1249;51.270;6.756;2022-10-15T03:04:38;9.83;;;8.83;;
2476;SDS011;1249;51.270;6.756;2022-10-15T03:07:06;12.50;;;11.43;;
2476;SDS011;1249;51.270;6.756;2022-10-15T03:09:33;12.97;;;12.07;;
2476;SDS011;1249;51.270;6.756;2022-10-15T03:12:00;7.73;;;7.30;;
2476;SDS011;1249;51.270;6.756;2022-10-15T03:14:26;9.70;;;8.97;;
2476;SDS011;1249;51.270;6.756;2022-10-15T03:16:53;14.57;;;13.43;;
2476;SDS011;1249;51.270;6.756;2022-10-15T03:19:20;6.47;;;5.20;;
2476;SDS011;1249;51.270;6.756;2022-10-15T03:21:46;23.10;;;21.53;;
2476;SDS011;1249;51.270;6.756;2022-10-15T03:24:14;17.27;;;16.07;;
2476;SDS011;1249;51.270;6.756;2022-10-15T03:26:41;21.77;;;20.30;;
2476;SDS011;1249;51.270;6.756;2022-10-15T03:29:08;8.97;;;8.33;;
2476;SDS011;1249;51.270;6.756;2022-10-15T03:31:35;11.40;;;9.93;;
2476;SDS011;1249;51.270;6.756;2022-10-15T03:34:01;10.97;;;10.13;;
2476;SDS011;1249;51.270;6.756;2022-10-15T03:36:28;16.03;;;15.40;;
2476;SDS011;1249;51.270;6.756;2022-10-15T03:38:55;9.73;;;8.77;;
2476;SDS011;1249;51.270;6.756;2022-10-15T03:41:23;13.50;;;12.37;;
2476;SDS011;1249;51.270;6.756;2022-10-15T03:43:49;44.73;;;42.37;;
2476;SDS011;1249;51.270;6.756;2022-10-15T03:46:16;62.90;;;59.63;;
2476;SDS011;1249;51.270;6.756;2022-10-15T03:48:43;17.70;;;16.27;;
2476;SDS011;1249;51.270;6.756;2022-10-15T03:51:13;24.37;;;22.43;;
2476;SDS011;1249;51.270;6.756;2022-10-15T03:53:40;23.07;;;21.87;;
2476;SDS011;1249;51.270;6.756;2022-10-15T03:56:06;9.33;;;4.93;;
2476;SDS011;1249;51.270;6.756;2022-10-15T03:58:35;10.77;;;10.13;;
2476;SDS011;1249;51.270;6.756;2022-10-15T04:01:06;16.90;;;15.93;;
2476;SDS011;1249;51.270;6.756;2022-10-15T04:03:33;9.40;;;7.70;;
2476;SDS011;1249;51.270;6.756;2022-10-15T04:06:00;12.40;;;11.33;;
2476;SDS011;1249;51.270;6.756;2022-10-15T04:08:27;18.77;;;17.67;;
2476;SDS011;1249;51.270;6.756;2022-10-15T04:10:54;12.30;;;11.27;;
2476;SDS011;1249;51.270;6.756;2022-10-15T04:13:20;37.30;;;34.60;;
2476;SDS011;1249;51.270;6.756;2022-10-15T04:15:48;16.90;;;15.73;;
2476;SDS011;1249;51.270;6.756;2022-10-15T04:18:15;7.13;;;6.53;;
2476;SDS011;1249;51.270;6.756;2022-10-15T04:20:44;10.07;;;9.50;;
2476;SDS011;1249;51.270;6.756;2022-10-15T04:23:11;14.33;;;13.37;;
2476;SDS011;1249;51.270;6.756;2022-10-15T04:25:38;13.13;;;12.20;;
2476;SDS011;1249;51.270;6.756;2022-10-15T04:28:04;13.57;;;12.87;;
2476;SDS011;1249;51.270;6.756;2022-10-15T04:30:31;96.33;;;91.47;;
2476;SDS011;1249;51.270;6.756;2022-10-15T04:32:59;10.00;;;9.10;;
2476;SDS011;1249;51.270;6.756;2022-10-15T04:35:26;23.50;;;22.00;;
2476;SDS011;1249;51.270;6.756;2022-10-15T04:37:53;4.53;;;4.23;;
2476;SDS011;1249;51.270;6.756;2022-10-15T04:40:22;11.93;;;11.53;;
2476;SDS011;1249;51.270;6.756;2022-10-15T04:42:49;12.03;;;10.93;;
2476;SDS011;1249;51.270;6.756;2022-10-15T04:45:15;102.90;;;97.10;;
2476;SDS011;1249;51.270;6.756;2022-10-15T04:47:42;7.10;;;6.70;;
2476;SDS011;1249;51.270;6.756;2022-10-15T04:50:11;85.30;;;80.63;;
2476;SDS011;1249;51.270;6.756;2022-10-15T04:52:37;25.10;;;23.30;;
2476;SDS011;1249;51.270;6.756;2022-10-15T04:55:04;10.67;;;9.60;;
2476;SDS011;1249;51.270;6.756;2022-10-15T04:57:32;5.43;;;5.10;;
2476;SDS011;1249;51.270;6.756;2022-10-15T04:59:58;19.40;;;18.30;;
2476;SDS011;1249;51.270;6.756;2022-10-15T05:02:25;13.83;;;13.10;;
2476;SDS011;1249;51.270;6.756;2022-10-15T05:04:52;32.47;;;30.73;;
2476;SDS011;1249;51.270;6.756;2022-10-15T05:07:20;32.67;;;30.50;;
2476;SDS011;1249;51.270;6.756;2022-10-15T05:09:47;32.03;;;29.77;;
2476;SDS011;1249;51.270;6.756;2022-10-15T05:12:13;15.67;;;14.73;;
2476;SDS011;1249;51.270;6.756;2022-10-15T05:14:40;63.33;;;60.20;;
2476;SDS011;1249;51.270;6.756;2022-10-15T05:17:07;27.17;;;25.37;;
2476;SDS011;1249;51.270;6.756;2022-10-15T05:19:33;26.63;;;24.30;;
2476;SDS011;1249;51.270;6.756;2022-10-15T05:22:00;33.70;;;31.67;;
2476;SDS011;1249;51.270;6.756;2022-10-15T05:24:28;28.70;;;26.57;;
2476;SDS011;1249;51.270;6.756;2022-10-15T05:26:55;22.67;;;20.57;;
2476;SDS011;1249;51.270;6.756;2022-10-15T05:29:22;17.60;;;16.43;;
2476;SDS011;1249;51.270;6.756;2022-10-15T05:31:49;15.63;;;14.53;;
2476;SDS011;1249;51.270;6.756;2022-10-15T05:34:16;67.83;;;64.13;;
2476;SDS011;1249;51.270;6.756;2022-10-15T05:36:43;15.00;;;13.73;;
2476;SDS011;1249;51.270;6.756;2022-10-15T05:39:10;9.07;;;8.47;;
2476;SDS011;1249;51.270;6.756;2022-10-15T05:41:39;13.77;;;12.27;;
2476;SDS011;1249;51.270;6.756;2022-10-15T05:44:06;31.33;;;29.37;;
2476;SDS011;1249;51.270;6.756;2022-10-15T05:46:32;6.73;;;6.13;;
2476;SDS011;1249;51.270;6.756;2022-10-15T05:48:59;14.83;;;13.57;;
2476;SDS011;1249;51.270;6.756;2022-10-15T05:51:26;14.03;;;11.93;;
2476;SDS011;1249;51.270;6.756;2022-10-15T05:53:54;11.43;;;10.67;;
2476;SDS011;1249;51.270;6.756;2022-10-15T05:56:21;9.00;;;8.47;;
2476;SDS011;1249;51.270;6.756;2022-10-15T05:58:50;14.90;;;14.17;;
2476;SDS011;1249;51.270;6.756;2022-10-15T06:01:17;14.37;;;13.17;;
2476;SDS011;1249;51.270;6.756;2022-10-15T06:03:44;15.90;;;15.20;;
2476;SDS011;1249;51.270;6.756;2022-10-15T06:06:15;11.30;;;10.60;;
2476;SDS011;1249;51.270;6.756;2022-10-15T06:08:44;11.93;;;10.93;;
2476;SDS011;1249;51.270;6.756;2022-10-15T06:11:11;11.27;;;10.43;;
2476;SDS011;1249;51.270;6.756;2022-10-15T06:13:38;17.13;;;15.60;;
2476;SDS011;1249;51.270;6.756;2022-10-15T06:16:07;11.57;;;10.73;;
2476;SDS011;1249;51.270;6.756;2022-10-15T06:18:34;16.80;;;15.57;;
2476;SDS011;1249;51.270;6.756;2022-10-15T06:21:02;10.47;;;9.83;;
2476;SDS011;1249;51.270;6.756;2022-10-15T06:23:30;13.60;;;12.60;;
2476;SDS011;1249;51.270;6.756;2022-10-15T06:26:00;15.27;;;14.00;;
2476;SDS011;1249;51.270;6.756;2022-10-15T06:28:27;12.57;;;11.93;;
2476;SDS011;1249;51.270;6.756;2022-10-15T06:30:56;21.03;;;18.40;;
2476;SDS011;1249;51.270;6.756;2022-10-15T06:33:24;15.17;;;14.30;;
2476;SDS011;1249;51.270;6.756;2022-10-15T06:35:51;26.83;;;25.03;;
2476;SDS011;1249;51.270;6.756;2022-10-15T06:38:18;21.57;;;20.33;;
2476;SDS011;1249;51.270;6.756;2022-10-15T06:40:45;21.73;;;20.33;;
2476;SDS011;1249;51.270;6.756;2022-10-15T06:43:11;26.93;;;25.40;;
2476;SDS011;1249;51.270;6.756;2022-10-15T06:45:39;37.07;;;34.47;;
2476;SDS011;1249;51.270;6.756;2022-10-15T06:48:07;31.23;;;29.30;;
2476;SDS011;1249;51.270;6.756;2022-10-15T06:50:35;40.53;;;37.63;;
2476;SDS011;1249;51.270;6.756;2022-10-15T06:53:03;28.27;;;26.20;;
2476;SDS011;1249;51.270;6.756;2022-10-15T06:55:31;20.77;;;19.40;;
2476;SDS011;1249;51.270;6.756;2022-10-15T06:57:58;24.57;;;22.80;;
2476;SDS011;1249;51.270;6.756;2022-10-15T07:00:25;19.93;;;18.77;;
2476;SDS011;1249;51.270;6.756;2022-10-15T07:02:52;21.87;;;20.73;;
2476;SDS011;1249;51.270;6.756;2022-10-15T07:05:19;28.47;;;26.43;;
2476;SDS011;1249;51.270;6.756;2022-10-15T07:07:51;44.67;;;42.23;;
2476;SDS011;1249;51.270;6.756;2022-10-15T07:10:18;39.20;;;36.93;;
2476;SDS011;1249;51.270;6.756;2022-10-15T07:12:45;35.07;;;32.83;;
2476;SDS011;1249;51.270;6.756;2022-10-15T07:15:11;40.20;;;37.93;;
2476;SDS011;1249;51.270;6.756;2022-10-15T07:17:38;34.03;;;31.93;;
2476;SDS011;1249;51.270;6.756;2022-10-15T07:20:10;53.23;;;50.07;;
2476;SDS011;1249;51.270;6.756;2022-10-15T07:22:37;42.00;;;39.37;;
2476;SDS011;1249;51.270;6.756;2022-10-15T07:25:05;63.70;;;60.13;;
2476;SDS011;1249;51.270;6.756;2022-10-15T07:27:33;55.00;;;51.97;;
2476;SDS011;1249;51.270;6.756;2022-10-15T07:30:00;62.10;;;58.73;;
2476;SDS011;1249;51.270;6.756;2022-10-15T07:32:27;65.80;;;62.37;;
2476;SDS011;1249;51.270;6.756;2022-10-15T07:34:54;68.80;;;65.07;;
2476;SDS011;1249;51.270;6.756;2022-10-15T07:37:20;73.63;;;69.73;;
2476;SDS011;1249;51.270;6.756;2022-10-15T07:39:48;49.00;;;45.93;;
2476;SDS011;1249;51.270;6.756;2022-10-15T07:42:16;50.43;;;47.27;;
2476;SDS011;1249;51.270;6.756;2022-10-15T07:44:42;63.60;;;60.13;;
2476;SDS011;1249;51.270;6.756;2022-10-15T07:47:09;68.47;;;64.87;;
2476;SDS011;1249;51.270;6.756;2022-10-15T07:49:36;79.13;;;74.70;;
2476;SDS011;1249;51.270;6.756;2022-10-15T07:52:03;95.13;;;89.57;;
2476;SDS011;1249;51.270;6.756;2022-10-15T07:54:31;73.53;;;69.40;;
2476;SDS011;1249;51.270;6.756;2022-10-15T07:56:57;83.57;;;79.23;;
2476;SDS011;1249;51.270;6.756;2022-10-15T07:59:25;80.80;;;76.13;;
2476;SDS011;1249;51.270;6.756;2022-10-15T08:01:52;84.97;;;79.67;;
2476;SDS011;1249;51.270;6.756;2022-10-15T08:04:19;85.43;;;80.47;;
2476;SDS011;1249;51.270;6.756;2022-10-15T08:06:46;66.37;;;62.63;;
2476;SDS011;1249;51.270;6.756;2022-10-15T08:09:13;70.43;;;66.47;;
2476;SDS011;1249;51.270;6.756;2022-10-15T08:11:40;77.87;;;73.53;;
2476;SDS011;1249;51.270;6.756;2022-10-15T08:14:07;83.30;;;78.60;;
2476;SDS011;1249;51.270;6.756;2022-10-15T08:16:35;79.80;;;75.50;;
2476;SDS011;1249;51.270;6.756;2022-10-15T08:19:03;75.80;;;72.07;;
2476;SDS011;1249;51.270;6.756;2022-10-15T08:21:30;77.93;;;73.40;;
2476;SDS011;1249;51.270;6.756;2022-10-15T08:23:56;82.30;;;77.10;;
2476;SDS011;1249;51.270;6.756;2022-10-15T08:26:24;81.20;;;76.77;;
2476;SDS011;1249;51.270;6.756;2022-10-15T08:28:51;76.20;;;71.93;;
2476;SDS011;1249;51.270;6.756;2022-10-15T08:31:18;63.50;;;59.97;;
2476;SDS011;1249;51.270;6.756;2022-10-15T08:33:46;81.17;;;76.53;;
2476;SDS011;1249;51.270;6.756;2022-10-15T08:36:13;71.50;;;68.00;;
2476;SDS011;1249;51.270;6.756;2022-10-15T08:38:39;86.20;;;81.80;;
2476;SDS011;1249;51.270;6.756;2022-10-15T08:41:13;81.07;;;76.60;;
2476;SDS011;1249;51.270;6.756;2022-10-15T08:43:46;93.60;;;88.30;;
2476;SDS011;1249;51.270;6.756;2022-10-15T08:46:15;101.37;;;96.47;;
2476;SDS011;1249;51.270;6.756;2022-10-15T08:48:47;95.60;;;90.47;;
2476;SDS011;1249;51.270;6.756;2022-10-15T08:51:17;82.33;;;78.10;;
2476;SDS011;1249;51.270;6.756;2022-10-15T08:53:46;92.13;;;87.43;;
2476;SDS011;1249;51.270;6.756;2022-10-15T08:56:18;88.37;;;83.43;;
2476;SDS011;1249;51.270;6.756;2022-10-15T08:58:50;69.40;;;65.50;;
2476;SDS011;1249;51.270;6.756;2022-10-15T09:01:23;78.17;;;73.60;;
2476;SDS011;1249;51.270;6.756;2022-10-15T09:03:59;98.27;;;92.50;;
2476;SDS011;1249;51.270;6.756;2022-10-15T09:06:33;91.73;;;86.83;;
2476;SDS011;1249;51.270;6.756;2022-10-15T09:09:03;89.40;;;84.57;;
2476;SDS011;1249;51.270;6.756;2022-10-15T09:11:39;78.50;;;74.83;;
2476;SDS011;1249;51.270;6.756;2022-10-15T09:14:11;89.43;;;85.13;;
2476;SDS011;1249;51.270;6.756;2022-10-15T09:16:41;101.47;;;96.50;;
2476;SDS011;1249;51.270;6.756;2022-10-15T09:19:14;92.00;;;87.70;;
2476;SDS011;1249;51.270;6.756;2022-10-15T09:21:43;79.70;;;75.03;;
2476;SDS011;1249;51.270;6.756;2022-10-15T09:24:14;91.90;;;86.57;;
2476;SDS011;1249;51.270;6.756;2022-10-15T09:26:48;90.50;;;85.70;;
2476;SDS011;1249;51.270;6.756;2022-10-15T09:29:22;81.90;;;77.23;;
2476;SDS011;1249;51.270;6.756;2022-10-15T09:31:57;86.77;;;81.80;;
2476;SDS011;1249;51.270;6.756;2022-10-15T09:34:32;88.37;;;84.13;;
2476;SDS011;1249;51.270;6.756;2022-10-15T09:37:04;104.80;;;99.67;;
2476;SDS011;1249;51.270;6.756;2022-10-15T09:39:41;87.77;;;83.03;;
2476;SDS011;1249;51.270;6.756;2022-10-15T09:42:22;86.77;;;82.40;;
2476;SDS011;1249;51.270;6.756;2022-10-15T09:44:54;94.87;;;89.83;;
2476;SDS011;1249;51.270;6.756;2022-10-15T09:47:25;93.67;;;88.83;;
2476;SDS011;1249;51.270;6.756;2022-10-15T09:49:55;93.27;;;88.27;;
2476;SDS011;1249;51.270;6.756;2022-10-15T09:52:24;90.87;;;85.80;;
2476;SDS011;1249;51.270;6.756;2022-10-15T09:55:02;93.90;;;88.07;;
2476;SDS011;1249;51.270;6.756;2022-10-15T09:57:35;100.10;;;95.20;;
2476;SDS011;1249;51.270;6.756;2022-10-15T10:00:06;95.83;;;91.07;;
2476;SDS011;1249;51.270;6.756;2022-10-15T10:02:35;68.87;;;65.07;;
2476;SDS011;1249;51.270;6.756;2022-10-15T10:07:54;84.63;;;79.67;;
2476;SDS011;1249;51.270;6.756;2022-10-15T10:10:33;100.13;;;94.17;;
2476;SDS011;1249;51.270;6.756;2022-10-15T10:13:02;98.33;;;93.13;;
2476;SDS011;1249;51.270;6.756;2022-10-15T10:15:34;71.80;;;68.03;;
2476;SDS011;1249;51.270;6.756;2022-10-15T10:18:04;63.53;;;59.80;;
2476;SDS011;1249;51.270;6.756;2022-10-15T10:20:32;74.93;;;70.73;;
2476;SDS011;1249;51.270;6.756;2022-10-15T10:23:00;77.13;;;73.13;;
2476;SDS011;1249;51.270;6.756;2022-10-15T10:25:30;65.00;;;60.77;;
2476;SDS011;1249;51.270;6.756;2022-10-15T10:28:02;47.93;;;45.37;;
2476;SDS011;1249;51.270;6.756;2022-10-15T10:30:32;61.17;;;57.17;;
2476;SDS011;1249;51.270;6.756;2022-10-15T10:33:01;59.17;;;55.67;;
2476;SDS011;1249;51.270;6.756;2022-10-15T10:35:33;62.43;;;59.03;;
2476;SDS011;1249;51.270;6.756;2022-10-15T10:38:16;52.57;;;49.53;;
2476;SDS011;1249;51.270;6.756;2022-10-15T10:40:48;54.67;;;51.20;;
2476;SDS011;1249;51.270;6.756;2022-10-15T10:43:18;61.30;;;58.07;;
2476;SDS011;1249;51.270;6.756;2022-10-15T10:45:52;48.73;;;45.87;;
2476;SDS011;1249;51.270;6.756;2022-10-15T10:48:21;53.67;;;49.50;;
2476;SDS011;1249;51.270;6.756;2022-10-15T10:51:01;35.90;;;33.73;;
2476;SDS011;1249;51.270;6.756;2022-10-15T10:53:33;58.17;;;54.53;;
2476;SDS011;1249;51.270;6.756;2022-10-15T10:56:07;47.30;;;44.27;;
2476;SDS011;1249;51.270;6.756;2022-10-15T10:58:37;77.07;;;72.20;;
2476;SDS011;1249;51.270;6.756;2022-10-15T11:01:04;77.47;;;72.83;;
2476;SDS011;1249;51.270;6.756;2022-10-15T11:03:32;66.50;;;63.17;;
2476;SDS011;1249;51.270;6.756;2022-10-15T11:06:05;41.37;;;38.70;;
2476;SDS011;1249;51.270;6.756;2022-10-15T11:08:47;75.80;;;71.67;;
2476;SDS011;1249;51.270;6.756;2022-10-15T11:11:26;49.37;;;46.63;;
2476;SDS011;1249;51.270;6.756;2022-10-15T11:13:59;44.50;;;41.83;;
2476;SDS011;1249;51.270;6.756;2022-10-15T11:16:33;45.23;;;42.53;;
2476;SDS011;1249;51.270;6.756;2022-10-15T11:19:11;62.47;;;59.07;;
2476;SDS011;1249;51.270;6.756;2022-10-15T11:21:53;45.60;;;42.70;;
2476;SDS011;1249;51.270;6.756;2022-10-15T11:24:34;55.07;;;51.90;;
2476;SDS011;1249;51.270;6.756;2022-10-15T11:27:13;63.10;;;59.50;;
2476;SDS011;1249;51.270;6.756;2022-10-15T11:29:50;65.20;;;61.53;;
2476;SDS011;1249;51.270;6.756;2022-10-15T11:32:24;69.73;;;65.53;;
2476;SDS011;1249;51.270;6.756;2022-10-15T11:35:05;78.73;;;74.10;;
2476;SDS011;1249;51.270;6.756;2022-10-15T11:37:48;62.50;;;58.97;;
2476;SDS011;1249;51.270;6.756;2022-10-15T11:40:26;59.40;;;56.07;;
2476;SDS011;1249;51.270;6.756;2022-10-15T11:43:02;60.00;;;56.57;;
2476;SDS011;1249;51.270;6.756;2022-10-15T11:48:29;66.70;;;63.53;;
2476;SDS011;1249;51.270;6.756;2022-10-15T11:51:07;57.87;;;54.90;;
2476;SDS011;1249;51.270;6.756;2022-10-15T11:56:37;80.97;;;77.07;;
2476;SDS011;1249;51.270;6.756;2022-10-15T11:59:12;83.53;;;79.00;;
2476;SDS011;1249;51.270;6.756;2022-10-15T12:01:45;83.77;;;79.10;;
2476;SDS011;1249;51.270;6.756;2022-10-15T12:04:16;91.57;;;86.10;;
2476;SDS011;1249;51.270;6.756;2022-10-15T12:06:56;70.43;;;66.63;;
2476;SDS011;1249;51.270;6.756;2022-10-15T12:09:29;57.67;;;54.40;;
2476;SDS011;1249;51.270;6.756;2022-10-15T12:12:02;70.43;;;66.07;;
2476;SDS011;1249;51.270;6.756;2022-10-15T12:14:37;53.50;;;49.93;;
2476;SDS011;1249;51.270;6.756;2022-10-15T12:17:10;75.03;;;70.87;;
2476;SDS011;1249;51.270;6.756;2022-10-15T12:19:46;53.27;;;50.47;;
2476;SDS011;1249;51.270;6.756;2022-10-15T12:22:31;90.73;;;85.30;;
2476;SDS011;1249;51.270;6.756;2022-10-15T12:25:00;84.17;;;79.70;;
2476;SDS011;1249;51.270;6.756;2022-10-15T12:27:29;80.17;;;75.87;;
2476;SDS011;1249;51.270;6.756;2022-10-15T12:30:12;78.37;;;74.37;;
2476;SDS011;1249;51.270;6.756;2022-10-15T12:32:47;77.60;;;73.50;;
2476;SDS011;1249;51.270;6.756;2022-10-15T12:35:19;71.37;;;67.83;;
2476;SDS011;1249;51.270;6.756;2022-10-15T12:37:48;82.37;;;78.67;;
2476;SDS011;1249;51.270;6.756;2022-10-15T12:40:24;62.93;;;59.47;;
2476;SDS011;1249;51.270;6.756;2022-10-15T12:42:54;88.10;;;82.83;;
2476;SDS011;1249;51.270;6.756;2022-10-15T12:45:23;76.40;;;72.40;;
2476;SDS011;1249;51.270;6.756;2022-10-15T12:47:53;74.73;;;70.23;;
2476;SDS011;1249;51.270;6.756;2022-10-15T12:50:21;86.33;;;81.93;;
2476;SDS011;1249;51.270;6.756;2022-10-15T12:52:56;76.67;;;72.10;;
2476;SDS011;1249;51.270;6.756;2022-10-15T12:55:28;103.13;;;97.87;;
2476;SDS011;1249;51.270;6.756;2022-10-15T12:57:58;84.97;;;79.67;;
2476;SDS011;1249;51.270;6.756;2022-10-15T13:00:34;91.77;;;86.70;;
2476;SDS011;1249;51.270;6.756;2022-10-15T13:03:13;93.80;;;89.30;;
2476;SDS011;1249;51.270;6.756;2022-10-15T13:05:50;101.97;;;96.53;;
2476;SDS011;1249;51.270;6.756;2022-10-15T13:08:20;91.63;;;86.70;;
2476;SDS011;1249;51.270;6.756;2022-10-15T13:10:51;103.83;;;98.23;;
2476;SDS011;1249;51.270;6.756;2022-10-15T13:13:21;77.30;;;73.17;;
2476;SDS011;1249;51.270;6.756;2022-10-15T13:15:51;117.33;;;111.07;;
2476;SDS011;1249;51.270;6.756;2022-10-15T13:18:22;127.67;;;120.77;;
2476;SDS011;1249;51.270;6.756;2022-10-15T13:20:50;98.13;;;92.50;;
2476;SDS011;1249;51.270;6.756;2022-10-15T13:23:21;100.63;;;95.27;;
2476;SDS011;1249;51.270;6.756;2022-10-15T13:25:53;100.67;;;94.53;;
2476;SDS011;1249;51.270;6.756;2022-10-15T13:28:37;107.90;;;101.97;;
2476;SDS011;1249;51.270;6.756;2022-10-15T13:31:06;103.80;;;98.20;;
2476;SDS011;1249;51.270;6.756;2022-10-15T13:33:38;113.10;;;106.50;;
2476;SDS011;1249;51.270;6.756;2022-10-15T13:36:07;125.63;;;118.93;;
2476;SDS011;1249;51.270;6.756;2022-10-15T13:38:40;106.13;;;99.83;;
2476;SDS011;1249;51.270;6.756;2022-10-15T13:41:08;97.70;;;92.13;;
2476;SDS011;1249;51.270;6.756;2022-10-15T13:43:35;122.63;;;116.13;;
2476;SDS011;1249;51.270;6.756;2022-10-15T13:46:02;115.80;;;110.40;;
2476;SDS011;1249;51.270;6.756;2022-10-15T13:48:29;102.10;;;96.23;;
2476;SDS011;1249;51.270;6.756;2022-10-15T13:50:57;111.87;;;105.77;;
2476;SDS011;1249;51.270;6.756;2022-10-15T13:53:27;102.60;;;96.50;;
2476;SDS011;1249;51.270;6.756;2022-10-15T13:55:56;88.20;;;83.67;;
2476;SDS011;1249;51.270;6.756;2022-10-15T13:58:26;102.20;;;96.27;;
2476;SDS011;1249;51.270;6.756;2022-10-15T14:00:56;97.70;;;92.80;;
2476;SDS011;1249;51.270;6.756;2022-10-15T14:03:25;127.73;;;120.63;;
2476;SDS011;1249;51.270;6.756;2022-10-15T14:05:53;126.33;;;119.83;;
2476;SDS011;1249;51.270;6.756;2022-10-15T14:08:22;81.23;;;76.93;;
2476;SDS011;1249;51.270;6.756;2022-10-15T14:10:52;104.43;;;99.17;;
2476;SDS011;1249;51.270;6.756;2022-10-15T14:13:22;118.67;;;112.43;;
2476;SDS011;1249;51.270;6.756;2022-10-15T14:15:54;90.73;;;85.57;;
2476;SDS011;1249;51.270;6.756;2022-10-15T14:18:27;112.77;;;106.67;;
2476;SDS011;1249;51.270;6.756;2022-10-15T14:20:56;111.13;;;105.33;;
2476;SDS011;1249;51.270;6.756;2022-10-15T14:23:24;83.83;;;79.03;;
2476;SDS011;1249;51.270;6.756;2022-10-15T14:25:56;94.43;;;89.50;;
2476;SDS011;1249;51.270;6.756;2022-10-15T14:28:24;119.20;;;112.70;;
2476;SDS011;1249;51.270;6.756;2022-10-15T14:30:54;106.33;;;100.93;;
2476;SDS011;1249;51.270;6.756;2022-10-15T14:33:28;99.27;;;93.40;;
2476;SDS011;1249;51.270;6.756;2022-10-15T14:36:03;109.07;;;103.33;;
2476;SDS011;1249;51.270;6.756;2022-10-15T14:38:32;94.43;;;89.30;;
2476;SDS011;1249;51.270;6.756;2022-10-15T14:40:59;73.43;;;69.73;;
2476;SDS011;1249;51.270;6.756;2022-10-15T14:43:31;94.17;;;89.23;;
2476;SDS011;1249;51.270;6.756;2022-10-15T14:46:00;92.73;;;88.17;;
2476;SDS011;1249;51.270;6.756;2022-10-15T14:48:30;79.00;;;74.87;;
2476;SDS011;1249;51.270;6.756;2022-10-15T14:51:01;132.17;;;125.10;;
2476;SDS011;1249;51.270;6.756;2022-10-15T14:53:31;91.70;;;87.00;;
2476;SDS011;1249;51.270;6.756;2022-10-15T14:56:01;91.20;;;86.47;;
2476;SDS011;1249;51.270;6.756;2022-10-15T14:58:31;92.13;;;87.83;;
2476;SDS011;1249;51.270;6.756;2022-10-15T15:00:58;98.57;;;93.43;;
2476;SDS011;1249;51.270;6.756;2022-10-15T15:03:29;89.83;;;84.83;;
2476;SDS011;1249;51.270;6.756;2022-10-15T15:06:02;67.77;;;64.23;;
2476;SDS011;1249;51.270;6.756;2022-10-15T15:08:29;53.03;;;49.67;;
2476;SDS011;1249;51.270;6.756;2022-10-15T15:10:56;68.70;;;64.90;;
2476;SDS011;1249;51.270;6.756;2022-10-15T15:13:26;50.17;;;47.30;;
2476;SDS011;1249;51.270;6.756;2022-10-15T15:15:54;66.93;;;63.23;;